sensor_id;sensor_type;location;lat;lon;timestamp;P1;durP1;ratioP1;P2;durP2;ratioP2
9860;SDS011;4969;52.304;4.968;2023-05-29T00:00:32;8.90;;;3.27;;
9860;SDS011;4969;52.304;4.968;2023-05-29T00:02:59;12.70;;;3.57;;
9860;SDS011;4969;52.304;4.968;2023-05-29T00:05:26;12.60;;;3.30;;
9860;SDS011;4969;52.304;4.968;2023-05-29T00:07:53;12.17;;;3.30;;
9860;SDS011;4969;52.304;4.968;2023-05-29T00:10:22;10.13;;;3.43;;
9860;SDS011;4969;52.304;4.968;2023-05-29T00:12:48;13.57;;;3.53;;
9860;SDS011;4969;52.304;4.968;2023-05-29T00:15:16;15.10;;;3.53;;
9860;SDS011;4969;52.304;4.968;2023-05-29T00:17:42;14.43;;;3.50;;
9860;SDS011;4969;52.304;4.968;2023-05-29T00:20:09;12.70;;;3.33;;
9860;SDS011;4969;52.304;4.968;2023-05-29T00:22:37;10.70;;;2.90;;
9860;SDS011;4969;52.304;4.968;2023-05-29T00:25:04;15.05;;;3.67;;
9860;SDS011;4969;52.304;4.968;2023-05-29T00:27:32;12.73;;;3.53;;
9860;SDS011;4969;52.304;4.968;2023-05-29T00:29:59;13.20;;;3.60;;
9860;SDS011;4969;52.304;4.968;2023-05-29T00:32:26;14.03;;;3.80;;
9860;SDS011;4969;52.304;4.968;2023-05-29T00:34:53;10.40;;;3.00;;
9860;SDS011;4969;52.304;4.968;2023-05-29T00:37:19;8.80;;;3.17;;
9860;SDS011;4969;52.304;4.968;2023-05-29T00:39:46;14.33;;;3.43;;
9860;SDS011;4969;52.304;4.968;2023-05-29T00:42:13;12.80;;;3.23;;
9860;SDS011;4969;52.304;4.968;2023-05-29T00:44:41;14.37;;;3.20;;
9860;SDS011;4969;52.304;4.968;2023-05-29T00:47:07;13.03;;;3.30;;
9860;SDS011;4969;52.304;4.968;2023-05-29T00:49:34;12.33;;;3.63;;
9860;SDS011;4969;52.304;4.968;2023-05-29T00:52:02;15.07;;;3.50;;
9860;SDS011;4969;52.304;4.968;2023-05-29T00:54:31;12.90;;;3.30;;
9860;SDS011;4969;52.304;4.968;2023-05-29T00:57:00;11.63;;;3.30;;
9860;SDS011;4969;52.304;4.968;2023-05-29T00:59:29;12.43;;;3.20;;
9860;SDS011;4969;52.304;4.968;2023-05-29T01:01:57;11.93;;;3.30;;
9860;SDS011;4969;52.304;4.968;2023-05-29T01:04:25;10.20;;;3.00;;
9860;SDS011;4969;52.304;4.968;2023-05-29T01:06:52;11.90;;;3.87;;
9860;SDS011;4969;52.304;4.968;2023-05-29T01:09:19;12.13;;;3.43;;
9860;SDS011;4969;52.304;4.968;2023-05-29T01:11:50;10.03;;;3.33;;
9860;SDS011;4969;52.304;4.968;2023-05-29T01:14:29;13.70;;;3.37;;
9860;SDS011;4969;52.304;4.968;2023-05-29T01:17:07;13.43;;;3.50;;
9860;SDS011;4969;52.304;4.968;2023-05-29T01:19:50;16.30;;;3.53;;
9860;SDS011;4969;52.304;4.968;2023-05-29T01:22:34;13.73;;;3.73;;
9860;SDS011;4969;52.304;4.968;2023-05-29T01:25:10;13.40;;;3.27;;
9860;SDS011;4969;52.304;4.968;2023-05-29T01:27:44;13.83;;;3.77;;
9860;SDS011;4969;52.304;4.968;2023-05-29T01:30:13;14.33;;;3.30;;
9860;SDS011;4969;52.304;4.968;2023-05-29T01:32:41;15.23;;;3.40;;
9860;SDS011;4969;52.304;4.968;2023-05-29T01:35:08;10.77;;;3.30;;
9860;SDS011;4969;52.304;4.968;2023-05-29T01:37:35;17.20;;;4.13;;
9860;SDS011;4969;52.304;4.968;2023-05-29T01:40:01;11.63;;;3.57;;
9860;SDS011;4969;52.304;4.968;2023-05-29T01:42:29;15.33;;;3.93;;
9860;SDS011;4969;52.304;4.968;2023-05-29T01:44:57;15.80;;;3.53;;
9860;SDS011;4969;52.304;4.968;2023-05-29T01:47:24;12.20;;;3.37;;
9860;SDS011;4969;52.304;4.968;2023-05-29T01:49:51;10.67;;;3.07;;
9860;SDS011;4969;52.304;4.968;2023-05-29T01:52:18;11.50;;;3.37;;
9860;SDS011;4969;52.304;4.968;2023-05-29T01:54:45;15.27;;;3.30;;
9860;SDS011;4969;52.304;4.968;2023-05-29T01:57:11;9.20;;;2.97;;
9860;SDS011;4969;52.304;4.968;2023-05-29T01:59:38;13.20;;;3.73;;
9860;SDS011;4969;52.304;4.968;2023-05-29T02:02:08;11.17;;;3.30;;
9860;SDS011;4969;52.304;4.968;2023-05-29T02:04:35;11.30;;;3.57;;
9860;SDS011;4969;52.304;4.968;2023-05-29T02:07:02;12.03;;;3.10;;
9860;SDS011;4969;52.304;4.968;2023-05-29T02:09:28;14.47;;;3.47;;
9860;SDS011;4969;52.304;4.968;2023-05-29T02:11:55;9.07;;;2.63;;
9860;SDS011;4969;52.304;4.968;2023-05-29T02:14:22;7.87;;;3.00;;
9860;SDS011;4969;52.304;4.968;2023-05-29T02:16:49;11.10;;;3.43;;
9860;SDS011;4969;52.304;4.968;2023-05-29T02:19:18;8.27;;;3.10;;
9860;SDS011;4969;52.304;4.968;2023-05-29T02:21:46;7.97;;;2.57;;
9860;SDS011;4969;52.304;4.968;2023-05-29T02:24:13;11.23;;;2.90;;
9860;SDS011;4969;52.304;4.968;2023-05-29T02:26:39;7.77;;;2.47;;
9860;SDS011;4969;52.304;4.968;2023-05-29T02:29:07;11.80;;;2.57;;
9860;SDS011;4969;52.304;4.968;2023-05-29T02:31:33;14.13;;;3.17;;
9860;SDS011;4969;52.304;4.968;2023-05-29T02:34:00;14.87;;;2.93;;
9860;SDS011;4969;52.304;4.968;2023-05-29T02:36:28;10.13;;;2.90;;
9860;SDS011;4969;52.304;4.968;2023-05-29T02:38:54;12.60;;;3.07;;
9860;SDS011;4969;52.304;4.968;2023-05-29T02:41:21;10.57;;;3.03;;
9860;SDS011;4969;52.304;4.968;2023-05-29T02:43:47;15.83;;;3.83;;
9860;SDS011;4969;52.304;4.968;2023-05-29T02:46:14;13.30;;;3.40;;
9860;SDS011;4969;52.304;4.968;2023-05-29T02:48:40;9.33;;;2.53;;
9860;SDS011;4969;52.304;4.968;2023-05-29T02:51:07;9.33;;;3.23;;
9860;SDS011;4969;52.304;4.968;2023-05-29T02:53:35;11.13;;;2.97;;
9860;SDS011;4969;52.304;4.968;2023-05-29T02:56:01;9.87;;;2.40;;
9860;SDS011;4969;52.304;4.968;2023-05-29T02:58:28;13.03;;;3.13;;
9860;SDS011;4969;52.304;4.968;2023-05-29T03:00:55;11.97;;;2.90;;
9860;SDS011;4969;52.304;4.968;2023-05-29T03:03:21;9.37;;;3.10;;
9860;SDS011;4969;52.304;4.968;2023-05-29T03:05:48;9.93;;;3.30;;
9860;SDS011;4969;52.304;4.968;2023-05-29T03:08:14;8.97;;;2.47;;
9860;SDS011;4969;52.304;4.968;2023-05-29T03:10:42;11.60;;;3.23;;
9860;SDS011;4969;52.304;4.968;2023-05-29T03:13:09;8.93;;;2.63;;
9860;SDS011;4969;52.304;4.968;2023-05-29T03:15:36;13.15;;;2.97;;
9860;SDS011;4969;52.304;4.968;2023-05-29T03:18:03;7.10;;;2.53;;
9860;SDS011;4969;52.304;4.968;2023-05-29T03:20:29;8.35;;;2.63;;
9860;SDS011;4969;52.304;4.968;2023-05-29T03:22:56;8.55;;;2.50;;
9860;SDS011;4969;52.304;4.968;2023-05-29T03:25:22;13.38;;;3.55;;
9860;SDS011;4969;52.304;4.968;2023-05-29T03:27:50;10.95;;;3.00;;
9860;SDS011;4969;52.304;4.968;2023-05-29T03:30:17;8.75;;;2.63;;
9860;SDS011;4969;52.304;4.968;2023-05-29T03:32:44;11.00;;;2.45;;
9860;SDS011;4969;52.304;4.968;2023-05-29T03:35:11;7.22;;;2.03;;
9860;SDS011;4969;52.304;4.968;2023-05-29T03:37:38;10.32;;;3.03;;
9860;SDS011;4969;52.304;4.968;2023-05-29T03:40:05;13.98;;;3.50;;
9860;SDS011;4969;52.304;4.968;2023-05-29T03:42:32;8.30;;;2.85;;
9860;SDS011;4969;52.304;4.968;2023-05-29T03:45:00;9.50;;;2.88;;
9860;SDS011;4969;52.304;4.968;2023-05-29T03:47:26;5.88;;;2.40;;
9860;SDS011;4969;52.304;4.968;2023-05-29T03:49:53;8.25;;;2.67;;
9860;SDS011;4969;52.304;4.968;2023-05-29T03:52:20;11.70;;;3.08;;
9860;SDS011;4969;52.304;4.968;2023-05-29T03:54:46;11.82;;;2.67;;
9860;SDS011;4969;52.304;4.968;2023-05-29T03:57:13;10.40;;;2.95;;
9860;SDS011;4969;52.304;4.968;2023-05-29T03:59:39;10.13;;;2.67;;
9860;SDS011;4969;52.304;4.968;2023-05-29T04:02:07;11.43;;;3.17;;
9860;SDS011;4969;52.304;4.968;2023-05-29T04:04:34;7.75;;;2.22;;
9860;SDS011;4969;52.304;4.968;2023-05-29T04:07:01;9.57;;;2.88;;
9860;SDS011;4969;52.304;4.968;2023-05-29T04:09:27;8.38;;;2.30;;
9860;SDS011;4969;52.304;4.968;2023-05-29T04:11:54;13.75;;;3.35;;
9860;SDS011;4969;52.304;4.968;2023-05-29T04:14:21;10.23;;;2.55;;
9860;SDS011;4969;52.304;4.968;2023-05-29T04:16:47;9.02;;;2.95;;
9860;SDS011;4969;52.304;4.968;2023-05-29T04:19:15;8.02;;;2.55;;
9860;SDS011;4969;52.304;4.968;2023-05-29T04:21:42;11.77;;;3.13;;
9860;SDS011;4969;52.304;4.968;2023-05-29T04:24:08;10.48;;;2.97;;
9860;SDS011;4969;52.304;4.968;2023-05-29T04:26:36;10.75;;;3.22;;
9860;SDS011;4969;52.304;4.968;2023-05-29T04:29:06;13.70;;;3.83;;
9860;SDS011;4969;52.304;4.968;2023-05-29T04:31:32;10.52;;;3.25;;
9860;SDS011;4969;52.304;4.968;2023-05-29T04:34:01;10.02;;;3.25;;
9860;SDS011;4969;52.304;4.968;2023-05-29T04:36:30;11.73;;;3.53;;
9860;SDS011;4969;52.304;4.968;2023-05-29T04:38:58;10.40;;;3.25;;
9860;SDS011;4969;52.304;4.968;2023-05-29T04:41:25;9.65;;;3.10;;
9860;SDS011;4969;52.304;4.968;2023-05-29T04:43:54;14.30;;;3.30;;
9860;SDS011;4969;52.304;4.968;2023-05-29T04:46:21;11.05;;;2.70;;
9860;SDS011;4969;52.304;4.968;2023-05-29T04:48:49;12.13;;;2.95;;
9860;SDS011;4969;52.304;4.968;2023-05-29T04:51:18;8.15;;;2.67;;
9860;SDS011;4969;52.304;4.968;2023-05-29T04:53:46;8.27;;;2.78;;
9860;SDS011;4969;52.304;4.968;2023-05-29T04:56:13;15.50;;;3.90;;
9860;SDS011;4969;52.304;4.968;2023-05-29T04:58:39;14.07;;;3.63;;
9860;SDS011;4969;52.304;4.968;2023-05-29T05:01:07;15.57;;;3.78;;
9860;SDS011;4969;52.304;4.968;2023-05-29T05:03:34;13.25;;;3.40;;
9860;SDS011;4969;52.304;4.968;2023-05-29T05:06:01;12.98;;;3.47;;
9860;SDS011;4969;52.304;4.968;2023-05-29T05:08:28;11.60;;;3.60;;
9860;SDS011;4969;52.304;4.968;2023-05-29T05:10:56;12.40;;;3.37;;
9860;SDS011;4969;52.304;4.968;2023-05-29T05:13:23;11.73;;;3.07;;
9860;SDS011;4969;52.304;4.968;2023-05-29T05:15:50;15.90;;;3.72;;
9860;SDS011;4969;52.304;4.968;2023-05-29T05:18:17;15.53;;;3.80;;
9860;SDS011;4969;52.304;4.968;2023-05-29T05:20:43;13.05;;;3.30;;
9860;SDS011;4969;52.304;4.968;2023-05-29T05:23:10;11.33;;;3.10;;
9860;SDS011;4969;52.304;4.968;2023-05-29T05:25:37;12.52;;;3.22;;
9860;SDS011;4969;52.304;4.968;2023-05-29T05:28:05;9.38;;;3.08;;
9860;SDS011;4969;52.304;4.968;2023-05-29T05:30:31;12.25;;;3.60;;
9860;SDS011;4969;52.304;4.968;2023-05-29T05:32:58;11.70;;;3.37;;
9860;SDS011;4969;52.304;4.968;2023-05-29T05:35:24;9.83;;;3.03;;
9860;SDS011;4969;52.304;4.968;2023-05-29T05:37:51;12.53;;;3.50;;
9860;SDS011;4969;52.304;4.968;2023-05-29T05:40:18;12.50;;;3.83;;
9860;SDS011;4969;52.304;4.968;2023-05-29T05:42:44;9.03;;;2.73;;
9860;SDS011;4969;52.304;4.968;2023-05-29T05:45:12;10.10;;;2.83;;
9860;SDS011;4969;52.304;4.968;2023-05-29T05:47:38;13.50;;;3.80;;
9860;SDS011;4969;52.304;4.968;2023-05-29T05:50:05;12.50;;;3.63;;
9860;SDS011;4969;52.304;4.968;2023-05-29T05:52:32;12.80;;;3.73;;
9860;SDS011;4969;52.304;4.968;2023-05-29T05:54:59;11.47;;;2.83;;
9860;SDS011;4969;52.304;4.968;2023-05-29T05:57:25;11.53;;;3.07;;
9860;SDS011;4969;52.304;4.968;2023-05-29T05:59:52;10.70;;;3.40;;
9860;SDS011;4969;52.304;4.968;2023-05-29T06:02:20;9.13;;;2.87;;
9860;SDS011;4969;52.304;4.968;2023-05-29T06:04:47;8.70;;;2.97;;
9860;SDS011;4969;52.304;4.968;2023-05-29T06:07:14;11.90;;;3.10;;
9860;SDS011;4969;52.304;4.968;2023-05-29T06:09:41;11.77;;;2.83;;
9860;SDS011;4969;52.304;4.968;2023-05-29T06:12:08;12.40;;;3.30;;
9860;SDS011;4969;52.304;4.968;2023-05-29T06:14:35;6.83;;;2.33;;
9860;SDS011;4969;52.304;4.968;2023-05-29T06:17:01;10.20;;;2.77;;
9860;SDS011;4969;52.304;4.968;2023-05-29T06:19:29;9.20;;;2.83;;
9860;SDS011;4969;52.304;4.968;2023-05-29T06:21:56;9.80;;;3.33;;
9860;SDS011;4969;52.304;4.968;2023-05-29T06:24:23;17.03;;;3.10;;
9860;SDS011;4969;52.304;4.968;2023-05-29T06:26:49;10.37;;;2.80;;
9860;SDS011;4969;52.304;4.968;2023-05-29T06:29:16;11.83;;;2.73;;
9860;SDS011;4969;52.304;4.968;2023-05-29T06:31:42;11.37;;;2.93;;
9860;SDS011;4969;52.304;4.968;2023-05-29T06:34:09;10.32;;;2.42;;
9860;SDS011;4969;52.304;4.968;2023-05-29T06:36:37;9.48;;;2.97;;
9860;SDS011;4969;52.304;4.968;2023-05-29T06:39:05;10.05;;;3.10;;
9860;SDS011;4969;52.304;4.968;2023-05-29T06:41:31;10.07;;;2.90;;
9860;SDS011;4969;52.304;4.968;2023-05-29T06:43:58;8.85;;;2.88;;
9860;SDS011;4969;52.304;4.968;2023-05-29T06:46:25;6.22;;;2.15;;
9860;SDS011;4969;52.304;4.968;2023-05-29T06:48:51;8.80;;;3.03;;
9860;SDS011;4969;52.304;4.968;2023-05-29T06:51:18;9.70;;;2.83;;
9860;SDS011;4969;52.304;4.968;2023-05-29T06:53:46;12.50;;;3.80;;
9860;SDS011;4969;52.304;4.968;2023-05-29T06:56:12;11.18;;;3.55;;
9860;SDS011;4969;52.304;4.968;2023-05-29T06:58:39;10.60;;;3.00;;
9860;SDS011;4969;52.304;4.968;2023-05-29T07:01:06;9.30;;;2.70;;
9860;SDS011;4969;52.304;4.968;2023-05-29T07:03:32;9.15;;;3.00;;
9860;SDS011;4969;52.304;4.968;2023-05-29T07:05:59;8.87;;;2.60;;
9860;SDS011;4969;52.304;4.968;2023-05-29T07:08:27;10.65;;;3.00;;
9860;SDS011;4969;52.304;4.968;2023-05-29T07:10:55;8.33;;;3.27;;
9860;SDS011;4969;52.304;4.968;2023-05-29T07:13:21;11.27;;;3.27;;
9860;SDS011;4969;52.304;4.968;2023-05-29T07:15:50;11.03;;;2.60;;
9860;SDS011;4969;52.304;4.968;2023-05-29T07:18:17;6.67;;;2.03;;
9860;SDS011;4969;52.304;4.968;2023-05-29T07:20:43;8.87;;;2.77;;
9860;SDS011;4969;52.304;4.968;2023-05-29T07:23:10;6.73;;;2.50;;
9860;SDS011;4969;52.304;4.968;2023-05-29T07:25:36;8.27;;;2.60;;
9860;SDS011;4969;52.304;4.968;2023-05-29T07:28:04;8.63;;;2.92;;
9860;SDS011;4969;52.304;4.968;2023-05-29T07:30:31;10.68;;;2.47;;
9860;SDS011;4969;52.304;4.968;2023-05-29T07:32:57;10.43;;;3.17;;
9860;SDS011;4969;52.304;4.968;2023-05-29T07:35:25;13.77;;;3.43;;
9860;SDS011;4969;52.304;4.968;2023-05-29T07:37:51;9.73;;;2.50;;
9860;SDS011;4969;52.304;4.968;2023-05-29T07:40:19;9.13;;;2.80;;
9860;SDS011;4969;52.304;4.968;2023-05-29T07:42:45;10.70;;;3.00;;
9860;SDS011;4969;52.304;4.968;2023-05-29T07:45:13;9.27;;;3.10;;
9860;SDS011;4969;52.304;4.968;2023-05-29T07:47:40;10.67;;;3.00;;
9860;SDS011;4969;52.304;4.968;2023-05-29T07:50:06;10.57;;;2.90;;
9860;SDS011;4969;52.304;4.968;2023-05-29T07:52:34;9.00;;;2.80;;
9860;SDS011;4969;52.304;4.968;2023-05-29T07:55:01;7.83;;;2.43;;
9860;SDS011;4969;52.304;4.968;2023-05-29T07:57:27;10.60;;;3.03;;
9860;SDS011;4969;52.304;4.968;2023-05-29T07:59:54;10.73;;;3.10;;
9860;SDS011;4969;52.304;4.968;2023-05-29T08:02:22;9.43;;;2.50;;
9860;SDS011;4969;52.304;4.968;2023-05-29T08:04:48;13.00;;;2.60;;
9860;SDS011;4969;52.304;4.968;2023-05-29T08:07:15;9.60;;;2.50;;
9860;SDS011;4969;52.304;4.968;2023-05-29T08:09:41;10.17;;;3.10;;
9860;SDS011;4969;52.304;4.968;2023-05-29T08:12:08;8.13;;;2.67;;
9860;SDS011;4969;52.304;4.968;2023-05-29T08:14:34;8.93;;;2.40;;
9860;SDS011;4969;52.304;4.968;2023-05-29T08:17:01;10.33;;;2.50;;
9860;SDS011;4969;52.304;4.968;2023-05-29T08:19:29;7.93;;;3.10;;
9860;SDS011;4969;52.304;4.968;2023-05-29T08:21:56;9.73;;;3.07;;
9860;SDS011;4969;52.304;4.968;2023-05-29T08:24:22;11.40;;;3.23;;
9860;SDS011;4969;52.304;4.968;2023-05-29T08:26:49;7.70;;;2.90;;
9860;SDS011;4969;52.304;4.968;2023-05-29T08:29:15;7.60;;;2.90;;
9860;SDS011;4969;52.304;4.968;2023-05-29T08:31:42;10.27;;;2.70;;
9860;SDS011;4969;52.304;4.968;2023-05-29T08:34:08;11.77;;;2.97;;
9860;SDS011;4969;52.304;4.968;2023-05-29T08:36:36;10.20;;;2.73;;
9860;SDS011;4969;52.304;4.968;2023-05-29T08:39:06;9.77;;;2.42;;
9860;SDS011;4969;52.304;4.968;2023-05-29T08:41:34;10.70;;;2.88;;
9860;SDS011;4969;52.304;4.968;2023-05-29T08:44:17;9.63;;;3.03;;
9860;SDS011;4969;52.304;4.968;2023-05-29T08:46:48;8.52;;;2.80;;
9860;SDS011;4969;52.304;4.968;2023-05-29T08:49:19;10.83;;;3.40;;
9860;SDS011;4969;52.304;4.968;2023-05-29T08:51:49;10.03;;;2.80;;
9860;SDS011;4969;52.304;4.968;2023-05-29T08:54:20;8.90;;;2.97;;
9860;SDS011;4969;52.304;4.968;2023-05-29T08:56:48;9.07;;;2.60;;
9860;SDS011;4969;52.304;4.968;2023-05-29T08:59:14;11.53;;;3.23;;
9860;SDS011;4969;52.304;4.968;2023-05-29T09:01:42;13.32;;;3.60;;
9860;SDS011;4969;52.304;4.968;2023-05-29T09:04:09;12.33;;;3.03;;
9860;SDS011;4969;52.304;4.968;2023-05-29T09:06:36;10.17;;;3.03;;
9860;SDS011;4969;52.304;4.968;2023-05-29T09:09:04;11.17;;;2.83;;
9860;SDS011;4969;52.304;4.968;2023-05-29T09:11:31;8.57;;;2.93;;
9860;SDS011;4969;52.304;4.968;2023-05-29T09:13:58;7.33;;;2.40;;
9860;SDS011;4969;52.304;4.968;2023-05-29T09:16:24;10.55;;;3.33;;
9860;SDS011;4969;52.304;4.968;2023-05-29T09:18:51;5.72;;;2.20;;
9860;SDS011;4969;52.304;4.968;2023-05-29T09:21:24;9.43;;;3.35;;
9860;SDS011;4969;52.304;4.968;2023-05-29T09:23:52;15.02;;;3.65;;
9860;SDS011;4969;52.304;4.968;2023-05-29T09:26:21;9.68;;;2.65;;
9860;SDS011;4969;52.304;4.968;2023-05-29T09:28:48;8.48;;;2.90;;
9860;SDS011;4969;52.304;4.968;2023-05-29T09:31:15;9.52;;;3.25;;
9860;SDS011;4969;52.304;4.968;2023-05-29T09:33:46;7.30;;;3.33;;
9860;SDS011;4969;52.304;4.968;2023-05-29T09:36:19;9.45;;;3.25;;
9860;SDS011;4969;52.304;4.968;2023-05-29T09:38:47;10.87;;;3.40;;
9860;SDS011;4969;52.304;4.968;2023-05-29T09:41:19;13.70;;;3.47;;
9860;SDS011;4969;52.304;4.968;2023-05-29T09:43:48;13.17;;;3.20;;
9860;SDS011;4969;52.304;4.968;2023-05-29T09:46:15;14.83;;;3.77;;
9860;SDS011;4969;52.304;4.968;2023-05-29T09:48:43;7.50;;;2.92;;
9860;SDS011;4969;52.304;4.968;2023-05-29T09:51:18;12.77;;;3.40;;
9860;SDS011;4969;52.304;4.968;2023-05-29T09:53:47;9.17;;;3.23;;
9860;SDS011;4969;52.304;4.968;2023-05-29T09:56:15;10.60;;;3.10;;
9860;SDS011;4969;52.304;4.968;2023-05-29T09:58:44;9.55;;;3.65;;
9860;SDS011;4969;52.304;4.968;2023-05-29T10:01:12;13.27;;;3.08;;
9860;SDS011;4969;52.304;4.968;2023-05-29T10:03:40;10.50;;;3.20;;
9860;SDS011;4969;52.304;4.968;2023-05-29T10:06:07;11.65;;;3.63;;
9860;SDS011;4969;52.304;4.968;2023-05-29T10:08:37;14.30;;;4.10;;
9860;SDS011;4969;52.304;4.968;2023-05-29T10:11:06;13.68;;;3.95;;
9860;SDS011;4969;52.304;4.968;2023-05-29T10:13:35;8.90;;;3.72;;
9860;SDS011;4969;52.304;4.968;2023-05-29T10:16:07;11.13;;;4.00;;
9860;SDS011;4969;52.304;4.968;2023-05-29T10:18:37;9.18;;;3.17;;
9860;SDS011;4969;52.304;4.968;2023-05-29T10:21:05;12.70;;;3.42;;
9860;SDS011;4969;52.304;4.968;2023-05-29T10:23:33;12.40;;;4.00;;
9860;SDS011;4969;52.304;4.968;2023-05-29T10:26:04;12.63;;;3.58;;
9860;SDS011;4969;52.304;4.968;2023-05-29T10:28:34;11.52;;;4.20;;
9860;SDS011;4969;52.304;4.968;2023-05-29T10:31:03;13.50;;;3.67;;
9860;SDS011;4969;52.304;4.968;2023-05-29T10:33:37;12.82;;;3.60;;
9860;SDS011;4969;52.304;4.968;2023-05-29T10:36:21;12.50;;;4.30;;
9860;SDS011;4969;52.304;4.968;2023-05-29T10:38:51;11.60;;;3.78;;
9860;SDS011;4969;52.304;4.968;2023-05-29T10:41:28;13.02;;;3.50;;
9860;SDS011;4969;52.304;4.968;2023-05-29T10:43:57;15.07;;;4.47;;
9860;SDS011;4969;52.304;4.968;2023-05-29T10:49:28;14.68;;;4.43;;
9860;SDS011;4969;52.304;4.968;2023-05-29T10:51:55;12.05;;;4.05;;
9860;SDS011;4969;52.304;4.968;2023-05-29T10:54:24;9.05;;;3.38;;
9860;SDS011;4969;52.304;4.968;2023-05-29T10:56:52;10.05;;;4.00;;
9860;SDS011;4969;52.304;4.968;2023-05-29T10:59:22;12.50;;;3.78;;
9860;SDS011;4969;52.304;4.968;2023-05-29T11:01:51;14.52;;;3.92;;
9860;SDS011;4969;52.304;4.968;2023-05-29T11:04:29;13.38;;;4.38;;
9860;SDS011;4969;52.304;4.968;2023-05-29T11:06:57;13.27;;;4.35;;
9860;SDS011;4969;52.304;4.968;2023-05-29T11:09:28;12.02;;;3.95;;
9860;SDS011;4969;52.304;4.968;2023-05-29T11:12:15;13.75;;;4.30;;
9860;SDS011;4969;52.304;4.968;2023-05-29T11:14:54;11.85;;;3.60;;
9860;SDS011;4969;52.304;4.968;2023-05-29T11:17:28;12.65;;;4.30;;
9860;SDS011;4969;52.304;4.968;2023-05-29T11:19:57;11.95;;;3.63;;
9860;SDS011;4969;52.304;4.968;2023-05-29T11:22:30;15.35;;;5.03;;
9860;SDS011;4969;52.304;4.968;2023-05-29T11:25:20;9.73;;;4.00;;
9860;SDS011;4969;52.304;4.968;2023-05-29T11:27:47;14.63;;;5.15;;
9860;SDS011;4969;52.304;4.968;2023-05-29T11:30:13;14.82;;;4.35;;
9860;SDS011;4969;52.304;4.968;2023-05-29T11:32:40;16.20;;;4.40;;
9860;SDS011;4969;52.304;4.968;2023-05-29T11:35:12;11.63;;;3.85;;
9860;SDS011;4969;52.304;4.968;2023-05-29T11:37:40;11.98;;;3.85;;
9860;SDS011;4969;52.304;4.968;2023-05-29T11:40:09;13.15;;;4.65;;
9860;SDS011;4969;52.304;4.968;2023-05-29T11:42:37;13.95;;;4.95;;
9860;SDS011;4969;52.304;4.968;2023-05-29T11:45:09;12.90;;;4.40;;
9860;SDS011;4969;52.304;4.968;2023-05-29T11:47:50;19.63;;;4.55;;
9860;SDS011;4969;52.304;4.968;2023-05-29T11:50:19;12.88;;;4.55;;
9860;SDS011;4969;52.304;4.968;2023-05-29T11:52:47;12.68;;;4.00;;
9860;SDS011;4969;52.304;4.968;2023-05-29T11:55:14;12.18;;;3.10;;
9860;SDS011;4969;52.304;4.968;2023-05-29T11:57:40;14.73;;;4.25;;
9860;SDS011;4969;52.304;4.968;2023-05-29T12:00:07;14.25;;;4.38;;
9860;SDS011;4969;52.304;4.968;2023-05-29T12:02:38;12.13;;;4.22;;
9860;SDS011;4969;52.304;4.968;2023-05-29T12:05:05;12.35;;;4.05;;
9860;SDS011;4969;52.304;4.968;2023-05-29T12:07:34;11.70;;;4.07;;
9860;SDS011;4969;52.304;4.968;2023-05-29T12:10:10;16.00;;;4.47;;
9860;SDS011;4969;52.304;4.968;2023-05-29T12:12:37;10.88;;;4.13;;
9860;SDS011;4969;52.304;4.968;2023-05-29T12:15:04;13.98;;;4.47;;
9860;SDS011;4969;52.304;4.968;2023-05-29T12:17:33;14.73;;;4.65;;
9860;SDS011;4969;52.304;4.968;2023-05-29T12:20:00;16.90;;;3.95;;
9860;SDS011;4969;52.304;4.968;2023-05-29T12:22:37;12.23;;;4.25;;
9860;SDS011;4969;52.304;4.968;2023-05-29T12:25:06;14.88;;;3.88;;
9860;SDS011;4969;52.304;4.968;2023-05-29T12:27:33;13.73;;;4.35;;
9860;SDS011;4969;52.304;4.968;2023-05-29T12:30:06;12.73;;;4.00;;
9860;SDS011;4969;52.304;4.968;2023-05-29T12:32:34;13.48;;;4.43;;
9860;SDS011;4969;52.304;4.968;2023-05-29T12:35:02;11.73;;;3.90;;
9860;SDS011;4969;52.304;4.968;2023-05-29T12:37:42;10.75;;;3.80;;
9860;SDS011;4969;52.304;4.968;2023-05-29T12:40:10;13.27;;;4.35;;
9860;SDS011;4969;52.304;4.968;2023-05-29T12:42:43;11.07;;;4.20;;
9860;SDS011;4969;52.304;4.968;2023-05-29T12:45:11;13.55;;;4.10;;
9860;SDS011;4969;52.304;4.968;2023-05-29T12:47:44;13.35;;;3.95;;
9860;SDS011;4969;52.304;4.968;2023-05-29T12:50:21;15.15;;;4.50;;
9860;SDS011;4969;52.304;4.968;2023-05-29T12:52:54;15.25;;;4.43;;
9860;SDS011;4969;52.304;4.968;2023-05-29T12:55:21;14.98;;;4.22;;
9860;SDS011;4969;52.304;4.968;2023-05-29T12:57:48;11.98;;;3.97;;
9860;SDS011;4969;52.304;4.968;2023-05-29T13:00:15;16.92;;;4.28;;
9860;SDS011;4969;52.304;4.968;2023-05-29T13:02:42;12.32;;;4.13;;
9860;SDS011;4969;52.304;4.968;2023-05-29T13:05:09;13.88;;;4.53;;
9860;SDS011;4969;52.304;4.968;2023-05-29T13:07:36;14.75;;;4.40;;
9860;SDS011;4969;52.304;4.968;2023-05-29T13:10:04;15.65;;;4.72;;
9860;SDS011;4969;52.304;4.968;2023-05-29T13:12:31;16.25;;;4.18;;
9860;SDS011;4969;52.304;4.968;2023-05-29T13:14:58;12.23;;;3.78;;
9860;SDS011;4969;52.304;4.968;2023-05-29T13:17:25;14.35;;;3.50;;
9860;SDS011;4969;52.304;4.968;2023-05-29T13:19:51;12.60;;;4.18;;
9860;SDS011;4969;52.304;4.968;2023-05-29T13:22:18;17.92;;;4.88;;
9860;SDS011;4969;52.304;4.968;2023-05-29T13:24:45;15.35;;;4.65;;
9860;SDS011;4969;52.304;4.968;2023-05-29T13:27:13;12.40;;;3.83;;
9860;SDS011;4969;52.304;4.968;2023-05-29T13:29:41;11.60;;;3.63;;
9860;SDS011;4969;52.304;4.968;2023-05-29T13:32:08;13.35;;;4.20;;
9860;SDS011;4969;52.304;4.968;2023-05-29T13:34:35;13.25;;;4.10;;
9860;SDS011;4969;52.304;4.968;2023-05-29T13:37:01;13.63;;;3.83;;
9860;SDS011;4969;52.304;4.968;2023-05-29T13:39:28;10.38;;;3.90;;
9860;SDS011;4969;52.304;4.968;2023-05-29T13:41:54;13.52;;;3.88;;
9860;SDS011;4969;52.304;4.968;2023-05-29T13:44:22;13.23;;;3.83;;
9860;SDS011;4969;52.304;4.968;2023-05-29T13:46:49;18.83;;;4.50;;
9860;SDS011;4969;52.304;4.968;2023-05-29T13:49:16;12.27;;;3.78;;
9860;SDS011;4969;52.304;4.968;2023-05-29T13:51:42;14.10;;;4.18;;
9860;SDS011;4969;52.304;4.968;2023-05-29T13:54:11;12.95;;;4.15;;
9860;SDS011;4969;52.304;4.968;2023-05-29T13:56:38;10.88;;;3.10;;
9860;SDS011;4969;52.304;4.968;2023-05-29T13:59:04;12.50;;;4.00;;
9860;SDS011;4969;52.304;4.968;2023-05-29T14:01:32;13.57;;;3.80;;
9860;SDS011;4969;52.304;4.968;2023-05-29T14:03:59;8.85;;;2.38;;
9860;SDS011;4969;52.304;4.968;2023-05-29T14:06:26;12.07;;;4.20;;
9860;SDS011;4969;52.304;4.968;2023-05-29T14:08:53;13.65;;;3.75;;
9860;SDS011;4969;52.304;4.968;2023-05-29T14:11:20;11.98;;;4.32;;
9860;SDS011;4969;52.304;4.968;2023-05-29T14:13:47;15.23;;;4.35;;
9860;SDS011;4969;52.304;4.968;2023-05-29T14:16:15;16.58;;;4.57;;
9860;SDS011;4969;52.304;4.968;2023-05-29T14:18:43;15.07;;;3.85;;
9860;SDS011;4969;52.304;4.968;2023-05-29T14:21:09;11.88;;;4.03;;
9860;SDS011;4969;52.304;4.968;2023-05-29T14:23:37;12.50;;;4.30;;
9860;SDS011;4969;52.304;4.968;2023-05-29T14:26:03;13.02;;;3.47;;
9860;SDS011;4969;52.304;4.968;2023-05-29T14:28:30;11.18;;;3.97;;
9860;SDS011;4969;52.304;4.968;2023-05-29T14:30:56;11.88;;;3.65;;
9860;SDS011;4969;52.304;4.968;2023-05-29T14:33:23;11.00;;;3.35;;
9860;SDS011;4969;52.304;4.968;2023-05-29T14:35:51;15.13;;;4.50;;
9860;SDS011;4969;52.304;4.968;2023-05-29T14:38:18;12.30;;;3.47;;
9860;SDS011;4969;52.304;4.968;2023-05-29T14:40:44;14.98;;;4.22;;
9860;SDS011;4969;52.304;4.968;2023-05-29T14:43:11;12.27;;;3.92;;
9860;SDS011;4969;52.304;4.968;2023-05-29T14:45:38;10.32;;;3.72;;
9860;SDS011;4969;52.304;4.968;2023-05-29T14:48:04;13.85;;;4.00;;
9860;SDS011;4969;52.304;4.968;2023-05-29T14:50:31;11.65;;;4.05;;
9860;SDS011;4969;52.304;4.968;2023-05-29T14:52:59;13.27;;;4.20;;
9860;SDS011;4969;52.304;4.968;2023-05-29T14:55:26;9.70;;;3.08;;
9860;SDS011;4969;52.304;4.968;2023-05-29T14:57:52;10.13;;;4.03;;
9860;SDS011;4969;52.304;4.968;2023-05-29T15:00:19;8.40;;;3.40;;
9860;SDS011;4969;52.304;4.968;2023-05-29T15:02:46;11.13;;;3.65;;
9860;SDS011;4969;52.304;4.968;2023-05-29T15:05:13;11.75;;;3.80;;
9860;SDS011;4969;52.304;4.968;2023-05-29T15:07:39;8.57;;;3.10;;
9860;SDS011;4969;52.304;4.968;2023-05-29T15:10:08;11.48;;;3.83;;
9860;SDS011;4969;52.304;4.968;2023-05-29T15:12:35;8.38;;;2.90;;